Terminal Aerodrome Forecast
Issued by NWS Twin Cities, MN

Home | Current Version | Previous Version | Graphics & Text | Print | Product List | Glossary On
Versions: 1 2 3 4 5 6 7 8 9 10 11 12 13 14 15 16 17 18 19 20 21 22 23 24 25 26 27 28 29 30 31
384
FTUS43 KMPX 220304 AAA
TAFMSP
TAF AMD
KMSP 220304Z 2203/2306 12009KT P6SM BKN050
     FM220415 04010KT P6SM VCSH SCT030 OVC050
     FM220600 VRB03KT P6SM SCT030 SCT120
     FM220900 VRB03KT 4SM BR VCSH SCT010 BKN120
     FM221300 VRB05KT P6SM SCT015 BKN040
     FM221700 28007KT P6SM SCT040=

USA.gov is the U.S. government's official web portal to all federal, state and local government web resources and services.